createdAt,value
2022-12-31T00:00:11.613Z,4.97
2022-12-31T00:02:38.506Z,5.65
2022-12-31T00:05:05.853Z,6.15
2022-12-31T00:10:01.904Z,5.82
2022-12-31T00:12:28.606Z,8.43
2022-12-31T00:14:55.276Z,4.55
2022-12-31T00:17:22.192Z,7.68
2022-12-31T00:19:48.910Z,7.00
2022-12-31T00:22:15.642Z,9.20
2022-12-31T00:24:42.429Z,8.32
2022-12-31T00:27:09.205Z,8.32
2022-12-31T00:29:35.980Z,7.22
2022-12-31T00:32:02.763Z,14.45
2022-12-31T00:34:29.627Z,14.38
2022-12-31T00:36:56.313Z,14.70
2022-12-31T00:39:23.030Z,8.20
2022-12-31T00:41:49.782Z,7.60
2022-12-31T00:44:16.504Z,11.23
2022-12-31T00:49:10.106Z,6.70
2022-12-31T00:51:36.846Z,14.80
2022-12-31T00:54:03.733Z,16.80
2022-12-31T00:56:30.725Z,9.43
2022-12-31T00:58:58.190Z,10.15
2022-12-31T01:01:29.887Z,10.38
2022-12-31T01:04:01.999Z,15.15
2022-12-31T01:06:28.778Z,10.07
2022-12-31T01:08:55.786Z,7.60
2022-12-31T01:11:23.476Z,10.05
2022-12-31T01:13:50.294Z,23.20
2022-12-31T01:16:17.577Z,9.93
2022-12-31T01:18:44.390Z,10.30
2022-12-31T01:21:11.753Z,12.52
2022-12-31T01:23:38.574Z,12.90
2022-12-31T01:26:06.565Z,12.90
2022-12-31T01:28:33.453Z,13.70
2022-12-31T01:31:04.164Z,14.40
2022-12-31T01:33:30.928Z,17.98
2022-12-31T01:36:04.978Z,11.52
2022-12-31T01:38:31.926Z,14.52
2022-12-31T01:40:58.638Z,18.00
2022-12-31T01:43:42.977Z,6.72
2022-12-31T01:48:36.458Z,15.68
2022-12-31T01:51:03.268Z,15.82
2022-12-31T01:53:31.060Z,16.15
2022-12-31T01:55:58.463Z,17.83
2022-12-31T01:58:27.969Z,13.38
2022-12-31T02:00:54.828Z,12.75
2022-12-31T02:03:22.293Z,14.95
2022-12-31T02:06:05.351Z,5.72
2022-12-31T02:08:34.647Z,15.50
2022-12-31T02:11:25.054Z,8.77
2022-12-31T02:13:57.994Z,12.07
2022-12-31T02:16:33.788Z,13.05
2022-12-31T02:19:34.835Z,11.63
2022-12-31T02:22:22.821Z,7.43
2022-12-31T02:25:09.357Z,9.30
2022-12-31T02:27:49.633Z,9.98
2022-12-31T02:30:23.085Z,4.20
2022-12-31T02:33:24.115Z,6.35
2022-12-31T02:35:59.132Z,7.55
2022-12-31T02:38:31.378Z,11.90
2022-12-31T02:40:58.252Z,8.35
2022-12-31T02:43:24.957Z,3.05
2022-12-31T02:46:16.645Z,4.22
2022-12-31T02:48:59.199Z,8.02
2022-12-31T02:52:27.434Z,8.25
2022-12-31T02:55:05.232Z,3.60
2022-12-31T02:57:50.762Z,9.40
2022-12-31T03:00:36.450Z,13.07
2022-12-31T03:03:03.213Z,7.43
2022-12-31T03:05:32.651Z,7.45
2022-12-31T03:07:59.432Z,7.93
2022-12-31T03:10:26.169Z,5.07
2022-12-31T03:12:52.884Z,2.65
2022-12-31T03:15:23.330Z,9.18
2022-12-31T03:17:59.151Z,3.42
2022-12-31T03:21:00.981Z,5.55
2022-12-31T03:23:34.308Z,4.82
2022-12-31T03:26:01.851Z,2.08
2022-12-31T03:28:29.539Z,6.80
2022-12-31T03:31:04.231Z,4.07
2022-12-31T03:33:36.019Z,4.38
2022-12-31T03:36:07.740Z,4.80
2022-12-31T03:38:34.461Z,1.85
2022-12-31T03:41:01.142Z,1.48
2022-12-31T03:43:27.848Z,3.10
2022-12-31T03:45:54.926Z,0.88
2022-12-31T03:48:22.165Z,0.20
2022-12-31T03:50:49.013Z,1.00
2022-12-31T03:53:15.723Z,0.30
2022-12-31T03:55:42.463Z,0.20
2022-12-31T03:58:09.215Z,0.68
2022-12-31T04:00:35.970Z,0.15
2022-12-31T04:03:02.777Z,0.10
2022-12-31T04:05:29.570Z,0.13
2022-12-31T04:07:56.527Z,0.10
2022-12-31T04:10:23.278Z,0.22
2022-12-31T04:12:50.017Z,0.10
2022-12-31T04:15:20.698Z,0.10
2022-12-31T04:17:47.773Z,1.35
2022-12-31T04:20:15.118Z,0.20
2022-12-31T04:22:42.227Z,0.10
2022-12-31T04:25:11.901Z,0.35
2022-12-31T04:27:40.175Z,0.28
2022-12-31T04:30:08.455Z,0.70
2022-12-31T04:32:35.239Z,1.17
2022-12-31T04:35:02.011Z,1.33
2022-12-31T04:37:28.734Z,1.50
2022-12-31T04:39:58.970Z,4.78
2022-12-31T04:42:28.694Z,2.53
2022-12-31T04:44:55.376Z,2.22
2022-12-31T04:47:23.984Z,3.50
2022-12-31T04:49:50.907Z,4.93
2022-12-31T04:52:17.586Z,1.88
2022-12-31T04:54:44.280Z,3.50
2022-12-31T04:57:11.079Z,4.75
2022-12-31T04:59:37.824Z,5.95
2022-12-31T05:02:04.698Z,4.93
2022-12-31T05:04:31.620Z,5.68
2022-12-31T05:06:58.912Z,8.32
2022-12-31T05:09:27.523Z,10.55
2022-12-31T05:11:54.307Z,13.25
2022-12-31T05:14:21.044Z,13.38
2022-12-31T05:16:47.844Z,12.38
2022-12-31T05:19:14.639Z,10.52
2022-12-31T05:21:41.372Z,14.43
2022-12-31T05:24:08.163Z,9.85
2022-12-31T05:26:35.018Z,13.10
2022-12-31T05:29:01.877Z,13.70
2022-12-31T05:31:28.645Z,11.73
2022-12-31T05:33:55.383Z,12.55
2022-12-31T05:36:22.124Z,15.82
2022-12-31T05:38:48.804Z,15.57
2022-12-31T05:41:15.557Z,11.35
2022-12-31T05:43:42.377Z,7.28
2022-12-31T05:46:09.242Z,12.18
2022-12-31T05:48:36.041Z,10.65
2022-12-31T05:51:02.853Z,7.25
2022-12-31T05:53:29.750Z,7.30
2022-12-31T05:55:56.533Z,8.70
2022-12-31T05:58:23.292Z,9.95
2022-12-31T06:00:51.052Z,7.30
2022-12-31T06:03:17.862Z,10.07
2022-12-31T06:05:44.629Z,8.20
2022-12-31T06:08:12.219Z,16.08
2022-12-31T06:10:39.421Z,11.93
2022-12-31T06:13:06.177Z,7.47
2022-12-31T06:15:33.069Z,11.90
2022-12-31T06:18:00.265Z,11.15
2022-12-31T06:20:26.943Z,10.45
2022-12-31T06:22:53.720Z,13.57
2022-12-31T06:25:20.431Z,17.02
2022-12-31T06:27:47.235Z,21.80
2022-12-31T06:30:14.245Z,14.75
2022-12-31T06:32:41.042Z,12.95
2022-12-31T06:35:08.182Z,17.75
2022-12-31T06:37:34.967Z,14.00
2022-12-31T06:40:01.751Z,17.48
2022-12-31T06:42:31.024Z,13.75
2022-12-31T06:45:00.632Z,14.05
2022-12-31T06:47:27.411Z,19.48
2022-12-31T06:49:54.126Z,13.80
2022-12-31T06:52:22.606Z,18.27
2022-12-31T06:54:51.147Z,14.07
2022-12-31T06:57:18.136Z,18.17
2022-12-31T06:59:45.122Z,17.60
2022-12-31T07:02:20.908Z,22.15
2022-12-31T07:05:08.363Z,20.33
2022-12-31T07:07:38.700Z,15.40
2022-12-31T07:10:27.333Z,22.50
2022-12-31T07:12:59.348Z,14.55
2022-12-31T07:15:38.361Z,13.77
2022-12-31T07:18:19.915Z,15.07
2022-12-31T07:20:46.867Z,11.68
2022-12-31T07:23:13.847Z,9.93
2022-12-31T07:25:43.767Z,11.35
2022-12-31T07:28:48.257Z,8.25
2022-12-31T07:31:27.909Z,10.60
2022-12-31T07:34:08.477Z,10.70
2022-12-31T07:36:37.972Z,9.70
2022-12-31T07:39:16.379Z,20.75
2022-12-31T07:42:09.384Z,8.05
2022-12-31T07:44:51.312Z,14.93
2022-12-31T07:47:22.819Z,10.15
2022-12-31T07:49:50.099Z,18.02
2022-12-31T07:52:17.444Z,15.18
2022-12-31T07:54:44.139Z,13.80
2022-12-31T07:57:14.787Z,16.20
2022-12-31T07:59:57.679Z,17.77
2022-12-31T08:02:35.271Z,13.75
2022-12-31T08:05:16.857Z,17.85
2022-12-31T08:07:55.350Z,20.20
2022-12-31T08:10:30.128Z,19.90
2022-12-31T08:13:01.086Z,21.30
2022-12-31T08:15:30.581Z,17.15
2022-12-31T08:17:57.997Z,22.00
2022-12-31T08:20:25.153Z,22.65
2022-12-31T08:23:19.035Z,15.27
2022-12-31T08:26:15.892Z,17.60
2022-12-31T08:29:02.985Z,26.77
2022-12-31T08:31:41.497Z,21.67
2022-12-31T08:34:23.700Z,25.08
2022-12-31T08:37:01.802Z,26.38
2022-12-31T08:40:10.030Z,29.20
2022-12-31T08:43:07.569Z,19.90
2022-12-31T08:45:46.419Z,24.42
2022-12-31T08:48:40.012Z,17.33
2022-12-31T08:51:08.748Z,19.27
2022-12-31T08:53:35.785Z,15.20
2022-12-31T08:56:07.903Z,28.92
2022-12-31T08:58:43.430Z,19.23
2022-12-31T09:01:10.315Z,15.45
2022-12-31T09:03:43.095Z,18.40
2022-12-31T09:06:12.428Z,16.95
2022-12-31T09:09:17.075Z,22.33
2022-12-31T09:12:08.739Z,25.50
2022-12-31T09:14:50.068Z,23.05
2022-12-31T09:17:23.168Z,15.98
2022-12-31T09:19:51.612Z,26.13
2022-12-31T09:22:18.551Z,27.10
2022-12-31T09:24:45.473Z,22.77
2022-12-31T09:28:00.759Z,25.55
2022-12-31T09:30:29.270Z,15.00
2022-12-31T09:33:07.364Z,26.85
2022-12-31T09:35:54.171Z,26.17
2022-12-31T09:38:43.233Z,25.80
2022-12-31T09:41:16.752Z,22.85
2022-12-31T09:44:01.223Z,45.15
2022-12-31T09:47:03.598Z,31.00
2022-12-31T09:49:39.961Z,14.35
2022-12-31T09:52:38.790Z,22.60
2022-12-31T09:55:36.431Z,19.52
2022-12-31T09:58:33.795Z,19.92
2022-12-31T10:01:15.119Z,18.90
2022-12-31T10:03:57.257Z,11.65
2022-12-31T10:06:33.215Z,26.95
2022-12-31T10:09:30.041Z,19.38
2022-12-31T10:12:26.136Z,25.08
2022-12-31T10:14:53.905Z,16.40
2022-12-31T10:17:31.055Z,16.85
2022-12-31T10:20:32.279Z,19.67
2022-12-31T10:23:01.802Z,9.82
2022-12-31T10:25:53.166Z,12.23
2022-12-31T10:28:50.161Z,5.55
2022-12-31T10:31:31.496Z,14.40
2022-12-31T10:34:11.060Z,9.88
2022-12-31T10:36:53.955Z,9.10
2022-12-31T10:39:43.499Z,5.38
2022-12-31T10:42:38.191Z,5.38
2022-12-31T10:45:19.945Z,4.40
2022-12-31T10:48:04.669Z,3.80
2022-12-31T10:50:50.215Z,5.60
2022-12-31T10:53:41.906Z,4.90
2022-12-31T10:56:31.673Z,4.28
2022-12-31T10:59:34.775Z,6.93
2022-12-31T11:02:17.269Z,4.93
2022-12-31T11:05:21.861Z,5.55
2022-12-31T11:08:10.328Z,4.78
2022-12-31T11:11:05.347Z,4.18
2022-12-31T11:13:57.634Z,4.93
2022-12-31T11:16:28.257Z,3.17
2022-12-31T11:19:24.339Z,2.63
2022-12-31T11:21:59.151Z,5.47
2022-12-31T11:24:28.941Z,5.90
2022-12-31T11:27:03.809Z,5.28
2022-12-31T11:29:54.280Z,1.85
2022-12-31T11:32:39.171Z,1.70
2022-12-31T11:35:20.745Z,3.75
2022-12-31T11:37:52.327Z,1.73
2022-12-31T11:40:30.238Z,2.97
2022-12-31T11:42:58.808Z,4.55
2022-12-31T11:45:50.411Z,1.00
2022-12-31T11:48:56.308Z,2.00
2022-12-31T11:51:25.968Z,1.17
2022-12-31T11:54:26.445Z,2.50
2022-12-31T11:57:01.049Z,1.55
2022-12-31T11:59:28.426Z,2.35
2022-12-31T12:02:05.941Z,1.50
2022-12-31T12:04:34.136Z,1.75
2022-12-31T12:07:01.594Z,0.45
2022-12-31T12:09:31.203Z,1.42
2022-12-31T12:12:03.218Z,6.03
2022-12-31T12:14:35.851Z,12.00
2022-12-31T12:17:05.500Z,10.07
2022-12-31T12:19:33.268Z,14.40
2022-12-31T12:22:11.178Z,19.30
2022-12-31T12:24:37.943Z,10.68
2022-12-31T12:27:05.295Z,16.63
2022-12-31T12:29:35.594Z,10.00
2022-12-31T12:32:20.084Z,11.52
2022-12-31T12:34:49.920Z,15.63
2022-12-31T12:37:33.149Z,13.00
2022-12-31T12:40:06.997Z,15.63
2022-12-31T12:45:08.138Z,9.73
2022-12-31T12:47:34.890Z,22.33
2022-12-31T12:50:01.678Z,18.15
2022-12-31T12:53:03.658Z,18.73
2022-12-31T12:55:33.215Z,13.50
2022-12-31T12:58:27.329Z,8.65
2022-12-31T13:01:28.281Z,15.80
2022-12-31T13:04:32.998Z,16.70
2022-12-31T13:06:47.967Z,17.73
2022-12-31T13:09:23.519Z,12.68
2022-12-31T13:12:08.411Z,19.98
2022-12-31T13:14:37.931Z,16.55
2022-12-31T13:17:13.903Z,19.13
2022-12-31T13:19:45.044Z,13.98
2022-12-31T13:22:23.056Z,20.90
2022-12-31T13:25:11.690Z,14.98
2022-12-31T13:27:40.905Z,22.38
2022-12-31T13:30:20.301Z,19.38
2022-12-31T13:32:49.523Z,20.27
2022-12-31T13:35:22.482Z,13.60
2022-12-31T13:37:49.263Z,14.87
2022-12-31T13:40:30.844Z,16.75
2022-12-31T13:43:08.735Z,20.05
2022-12-31T13:45:39.302Z,17.20
2022-12-31T13:48:18.663Z,16.23
2022-12-31T13:51:24.257Z,17.40
2022-12-31T13:54:02.169Z,22.67
2022-12-31T13:56:31.923Z,20.42
2022-12-31T13:59:12.677Z,16.02
2022-12-31T14:01:49.399Z,22.25
2022-12-31T14:04:25.326Z,17.35
2022-12-31T14:07:09.376Z,20.48
2022-12-31T14:09:36.789Z,20.52
2022-12-31T14:12:13.349Z,22.05
2022-12-31T14:15:11.833Z,18.40
2022-12-31T14:17:57.684Z,17.27
2022-12-31T14:20:47.538Z,16.00
2022-12-31T14:23:47.721Z,10.90
2022-12-31T14:26:23.969Z,10.82
2022-12-31T14:29:19.072Z,12.02
2022-12-31T14:31:49.135Z,19.13
2022-12-31T14:34:28.703Z,22.23
2022-12-31T14:37:01.343Z,16.25
2022-12-31T14:39:50.055Z,25.77
2022-12-31T14:42:35.850Z,23.25
2022-12-31T14:45:29.443Z,31.67
2022-12-31T14:48:03.120Z,25.57
2022-12-31T14:50:30.132Z,34.92
2022-12-31T14:53:00.025Z,24.92
2022-12-31T14:55:36.788Z,35.10
2022-12-31T14:58:29.544Z,37.05
2022-12-31T15:00:57.405Z,42.88
2022-12-31T15:03:42.955Z,34.47
2022-12-31T15:06:21.015Z,35.78
2022-12-31T15:09:10.597Z,42.72
2022-12-31T15:12:01.957Z,30.17
2022-12-31T15:14:47.343Z,37.05
2022-12-31T15:17:29.063Z,43.90
2022-12-31T15:20:17.487Z,39.20
2022-12-31T15:22:48.860Z,30.77
2022-12-31T15:25:40.041Z,45.22
2022-12-31T15:28:42.694Z,57.05
2022-12-31T15:31:18.952Z,42.17
2022-12-31T15:33:57.251Z,27.38
2022-12-31T15:36:26.327Z,38.58
2022-12-31T15:39:03.414Z,43.75
2022-12-31T15:42:18.650Z,46.92
2022-12-31T15:44:48.536Z,53.15
2022-12-31T15:47:41.980Z,31.33
2022-12-31T15:50:19.261Z,39.67
2022-12-31T15:52:56.519Z,29.00
2022-12-31T15:55:44.372Z,33.45
2022-12-31T15:58:15.748Z,41.67
2022-12-31T16:01:10.079Z,33.78
2022-12-31T16:03:38.318Z,42.33
2022-12-31T16:06:12.670Z,39.95
2022-12-31T16:08:39.460Z,48.53
2022-12-31T16:11:07.317Z,43.55
2022-12-31T16:13:35.633Z,38.70
2022-12-31T16:16:07.522Z,43.88
2022-12-31T16:18:41.330Z,29.70
2022-12-31T16:21:33.613Z,38.50
2022-12-31T16:24:03.765Z,40.33
2022-12-31T16:26:38.390Z,35.65
2022-12-31T16:29:05.215Z,42.88
2022-12-31T16:31:32.115Z,38.67
2022-12-31T16:34:14.277Z,43.33
2022-12-31T16:36:41.023Z,37.65
2022-12-31T16:39:36.936Z,40.90
2022-12-31T16:42:20.227Z,33.28
2022-12-31T16:44:50.802Z,34.17
2022-12-31T16:47:27.416Z,38.83
2022-12-31T16:50:04.143Z,34.13
2022-12-31T16:52:32.948Z,37.05
2022-12-31T16:54:59.724Z,48.67
2022-12-31T16:57:29.022Z,37.42
2022-12-31T16:59:58.294Z,31.38
2022-12-31T17:02:39.257Z,47.50
2022-12-31T17:05:24.375Z,46.80
2022-12-31T17:07:51.245Z,42.45
2022-12-31T17:10:18.029Z,42.45
2022-12-31T17:15:40.731Z,33.08
2022-12-31T17:18:07.599Z,39.92
2022-12-31T17:20:34.413Z,46.03
2022-12-31T17:23:04.278Z,41.55
2022-12-31T17:25:32.292Z,38.60
2022-12-31T17:28:23.465Z,37.50
2022-12-31T17:30:50.313Z,32.20
2022-12-31T17:33:20.119Z,37.63
2022-12-31T17:35:47.195Z,32.83
2022-12-31T17:38:26.194Z,32.53
2022-12-31T17:41:08.373Z,29.73
2022-12-31T17:43:36.969Z,37.80
2022-12-31T17:46:08.958Z,36.03
2022-12-31T17:48:35.941Z,37.45
2022-12-31T17:51:02.655Z,35.40
2022-12-31T17:53:29.522Z,27.20
2022-12-31T17:55:56.842Z,36.17
2022-12-31T17:58:33.509Z,30.45
2022-12-31T18:01:00.801Z,31.92
2022-12-31T18:03:27.771Z,31.45
2022-12-31T18:05:54.533Z,29.90
2022-12-31T18:08:21.389Z,36.83
2022-12-31T18:10:48.430Z,40.20
2022-12-31T18:13:27.941Z,58.10
2022-12-31T18:15:54.766Z,35.83
2022-12-31T18:18:25.472Z,38.60
2022-12-31T18:20:57.474Z,33.08
2022-12-31T18:23:31.365Z,46.45
2022-12-31T18:28:26.278Z,42.35
2022-12-31T18:30:53.148Z,34.08
2022-12-31T18:33:22.450Z,39.25
2022-12-31T18:36:09.843Z,45.00
2022-12-31T18:38:37.217Z,27.00
2022-12-31T18:41:03.987Z,37.78
2022-12-31T18:43:31.208Z,40.15
2022-12-31T18:45:58.203Z,26.40
2022-12-31T18:48:25.041Z,41.05
2022-12-31T18:50:51.865Z,43.30
2022-12-31T18:53:20.387Z,36.97
2022-12-31T18:55:54.910Z,27.45
2022-12-31T18:58:21.899Z,30.75
2022-12-31T19:00:49.308Z,23.05
2022-12-31T19:03:21.235Z,45.10
2022-12-31T19:05:50.013Z,40.97
2022-12-31T19:08:21.275Z,36.80
2022-12-31T19:10:48.608Z,41.92
2022-12-31T19:13:16.433Z,45.92
2022-12-31T19:15:52.618Z,51.30
2022-12-31T19:18:19.619Z,42.45
2022-12-31T19:20:46.653Z,41.22
2022-12-31T19:23:18.231Z,41.55
2022-12-31T19:25:45.808Z,48.72
2022-12-31T19:28:20.828Z,40.53
2022-12-31T19:30:47.610Z,38.78
2022-12-31T19:33:15.711Z,38.35
2022-12-31T19:35:42.669Z,36.40
2022-12-31T19:38:16.693Z,40.60
2022-12-31T19:40:43.569Z,23.65
2022-12-31T19:43:14.648Z,36.58
2022-12-31T19:45:42.512Z,37.58
2022-12-31T19:48:11.748Z,45.20
2022-12-31T19:50:41.065Z,27.30
2022-12-31T19:53:10.519Z,41.58
2022-12-31T19:55:37.401Z,43.65
2022-12-31T19:58:04.119Z,41.35
2022-12-31T20:00:30.815Z,39.47
2022-12-31T20:02:57.868Z,35.40
2022-12-31T20:05:24.768Z,24.52
2022-12-31T20:07:51.487Z,34.63
2022-12-31T20:10:18.334Z,42.38
2022-12-31T20:12:45.156Z,30.67
2022-12-31T20:15:11.910Z,43.20
2022-12-31T20:17:38.785Z,34.60
2022-12-31T20:20:06.840Z,26.98
2022-12-31T20:22:33.765Z,32.45
2022-12-31T20:25:00.449Z,36.85
2022-12-31T20:27:27.190Z,35.03
2022-12-31T20:29:53.893Z,31.70
2022-12-31T20:32:20.614Z,32.15
2022-12-31T20:34:48.456Z,28.77
2022-12-31T20:37:15.202Z,25.45
2022-12-31T20:39:42.850Z,35.03
2022-12-31T20:42:09.683Z,35.72
2022-12-31T20:44:36.478Z,25.38
2022-12-31T20:47:03.312Z,31.15
2022-12-31T20:50:00.746Z,38.50
2022-12-31T20:52:16.858Z,27.42
2022-12-31T20:54:43.535Z,30.80
2022-12-31T20:57:10.263Z,30.10
2022-12-31T20:59:37.057Z,33.95
2022-12-31T21:04:50.568Z,25.02
2022-12-31T21:07:17.374Z,37.83
2022-12-31T21:09:44.082Z,28.65
2022-12-31T21:12:30.263Z,30.83
2022-12-31T21:14:57.043Z,21.17
2022-12-31T21:17:23.799Z,25.40
2022-12-31T21:19:50.614Z,26.58
2022-12-31T21:22:17.338Z,26.00
2022-12-31T21:24:44.053Z,21.08
2022-12-31T21:27:10.941Z,18.40
2022-12-31T21:29:55.768Z,25.02
2022-12-31T21:32:24.664Z,15.38
2022-12-31T21:35:14.444Z,16.50
2022-12-31T21:37:58.746Z,18.13
2022-12-31T21:40:24.690Z,15.70
2022-12-31T21:42:51.403Z,17.15
2022-12-31T21:45:18.120Z,15.55
2022-12-31T21:48:03.617Z,16.70
2022-12-31T21:50:30.324Z,17.38
2022-12-31T21:52:57.223Z,20.20
2022-12-31T21:55:59.217Z,17.00
2022-12-31T21:58:27.635Z,19.42
2022-12-31T22:01:14.195Z,15.45
2022-12-31T22:03:41.333Z,16.75
2022-12-31T22:06:12.593Z,21.10
2022-12-31T22:08:40.537Z,23.92
2022-12-31T22:11:07.600Z,16.30
2022-12-31T22:13:34.427Z,13.63
2022-12-31T22:16:05.405Z,17.58
2022-12-31T22:18:34.986Z,17.67
2022-12-31T22:21:05.936Z,20.40
2022-12-31T22:23:33.581Z,19.67
2022-12-31T22:26:00.541Z,17.25
2022-12-31T22:28:38.012Z,20.63
2022-12-31T22:31:05.852Z,12.50
2022-12-31T22:33:32.638Z,13.57
2022-12-31T22:36:00.695Z,13.93
2022-12-31T22:38:28.091Z,12.82
2022-12-31T22:41:05.946Z,18.08
2022-12-31T22:43:34.484Z,13.95
2022-12-31T22:46:21.165Z,17.35
2022-12-31T22:48:48.267Z,9.23
2022-12-31T22:51:15.385Z,22.45
2022-12-31T22:53:43.388Z,18.40
2022-12-31T22:56:11.490Z,17.27
2022-12-31T22:58:38.186Z,15.48
2022-12-31T23:01:08.785Z,19.33
2022-12-31T23:03:35.682Z,23.33
2022-12-31T23:06:02.573Z,19.60
2022-12-31T23:08:29.353Z,12.57
2022-12-31T23:11:01.358Z,16.00
2022-12-31T23:13:51.007Z,24.20
2022-12-31T23:16:37.685Z,16.63
2022-12-31T23:19:23.898Z,12.00
2022-12-31T23:22:09.345Z,11.30
2022-12-31T23:24:36.383Z,8.20
2022-12-31T23:27:03.276Z,11.70
2022-12-31T23:29:30.206Z,10.80
2022-12-31T23:31:57.377Z,7.82
2022-12-31T23:34:24.345Z,10.27
2022-12-31T23:36:51.130Z,13.45
2022-12-31T23:39:17.947Z,12.77
2022-12-31T23:41:44.731Z,12.85
2022-12-31T23:44:14.529Z,9.77
2022-12-31T23:46:42.751Z,14.27
2022-12-31T23:49:10.084Z,10.30
2022-12-31T23:51:37.000Z,7.47
2022-12-31T23:54:04.423Z,10.15
2022-12-31T23:56:31.251Z,7.53
2022-12-31T23:58:58.600Z,14.25
